createdAt,value
2018-01-15T00:00:37.319Z,-1.20
2018-01-15T00:03:05.050Z,-1.20
2018-01-15T00:05:32.727Z,-1.30
2018-01-15T00:08:00.616Z,-1.20
2018-01-15T00:10:29.701Z,-1.10
2018-01-15T00:12:57.529Z,-0.80
2018-01-15T00:15:25.198Z,-0.90
2018-01-15T00:17:52.947Z,-1.00
2018-01-15T00:20:20.639Z,-1.10
2018-01-15T00:22:48.342Z,-1.20
2018-01-15T00:25:16.790Z,-1.00
2018-01-15T00:27:44.489Z,-1.00
2018-01-15T00:30:12.918Z,-0.80
2018-01-15T00:32:40.622Z,-0.80
2018-01-15T00:35:09.058Z,-0.80
2018-01-15T00:37:36.767Z,-0.80
2018-01-15T00:40:05.191Z,-1.00
2018-01-15T00:42:32.892Z,-1.10
2018-01-15T00:45:01.328Z,-1.10
2018-01-15T00:47:29.795Z,-0.90
2018-01-15T00:49:57.449Z,-0.90
2018-01-15T00:52:25.105Z,-0.80
2018-01-15T00:54:52.818Z,-0.90
2018-01-15T00:57:20.487Z,-1.00
2018-01-15T00:59:48.966Z,-0.80
2018-01-15T01:02:17.400Z,-0.60
2018-01-15T01:04:45.104Z,-0.60
2018-01-15T01:07:13.665Z,-0.60
2018-01-15T01:09:41.395Z,-0.60
2018-01-15T01:12:09.102Z,-0.60
2018-01-15T01:14:37.571Z,-0.90
2018-01-15T01:17:05.238Z,-0.90
2018-01-15T01:19:33.727Z,-0.70
2018-01-15T01:22:02.163Z,-0.70
2018-01-15T01:24:29.879Z,-0.80
2018-01-15T01:26:57.739Z,-0.80
2018-01-15T01:29:25.469Z,-0.70
2018-01-15T01:31:53.139Z,-0.60
2018-01-15T01:34:21.671Z,-0.70
2018-01-15T01:36:51.461Z,-0.80
2018-01-15T01:39:19.183Z,-0.60
2018-01-15T01:41:47.622Z,-0.60
2018-01-15T01:44:15.329Z,-0.60
2018-01-15T01:46:43.829Z,-0.50
2018-01-15T01:49:11.554Z,-0.60
2018-01-15T01:51:39.258Z,-0.60
2018-01-15T01:54:06.965Z,-0.60
2018-01-15T01:56:34.670Z,-0.60
2018-01-15T01:59:02.331Z,-0.60
2018-01-15T02:01:30.303Z,-0.60
2018-01-15T02:03:58.099Z,-0.60
2018-01-15T02:06:25.831Z,-0.70
2018-01-15T02:08:53.494Z,-0.70
2018-01-15T02:11:21.202Z,-0.70
2018-01-15T02:13:48.862Z,-0.60
2018-01-15T02:16:17.356Z,-0.60
2018-01-15T02:18:45.794Z,-0.70
2018-01-15T02:21:13.504Z,-0.70
2018-01-15T02:23:41.163Z,-0.70
2018-01-15T02:26:08.954Z,-0.60
2018-01-15T02:28:36.645Z,-0.70
2018-01-15T02:31:04.366Z,-0.80
2018-01-15T02:33:32.041Z,-0.90
2018-01-15T02:35:59.746Z,-1.00
2018-01-15T02:38:28.183Z,-0.80
2018-01-15T02:40:55.881Z,-0.80
2018-01-15T02:43:24.338Z,-0.80
2018-01-15T02:45:52.038Z,-0.70
2018-01-15T02:48:19.802Z,-1.00
2018-01-15T02:50:47.595Z,-0.90
2018-01-15T02:53:15.257Z,-1.00
2018-01-15T02:55:42.986Z,-1.10
2018-01-15T02:58:10.642Z,-0.90
2018-01-15T03:00:38.297Z,-1.00
2018-01-15T03:03:06.184Z,-1.00
2018-01-15T03:05:34.086Z,-1.10
2018-01-15T03:08:01.971Z,-1.00
2018-01-15T03:10:29.751Z,-0.90
2018-01-15T03:12:57.681Z,-1.00
2018-01-15T03:15:25.812Z,-0.90
2018-01-15T03:17:53.662Z,-1.10
2018-01-15T03:20:21.560Z,-1.00
2018-01-15T03:22:49.281Z,-1.00
2018-01-15T03:25:17.005Z,-0.80
2018-01-15T03:27:45.593Z,-1.00
2018-01-15T03:30:14.038Z,-1.10
2018-01-15T03:32:41.747Z,-1.10
2018-01-15T03:35:10.456Z,-1.30
2018-01-15T03:37:38.317Z,-1.30
2018-01-15T03:40:06.203Z,-1.30
2018-01-15T03:42:33.974Z,-1.20
2018-01-15T03:45:03.146Z,-0.90
2018-01-15T03:47:30.983Z,-0.90
2018-01-15T03:50:00.104Z,-0.90
2018-01-15T03:52:30.744Z,-1.00
2018-01-15T03:54:58.666Z,-1.00
2018-01-15T03:57:27.140Z,-1.20
2018-01-15T03:59:55.575Z,-1.10
2018-01-15T04:02:24.018Z,-1.10
2018-01-15T04:04:51.985Z,-1.10
2018-01-15T04:07:19.749Z,-1.00
2018-01-15T04:09:47.677Z,-0.80
2018-01-15T04:12:15.686Z,-0.60
2018-01-15T04:14:43.429Z,-0.40
2018-01-15T04:17:11.367Z,-0.50
2018-01-15T04:19:39.386Z,-0.40
2018-01-15T04:22:07.337Z,-0.40
2018-01-15T04:24:35.388Z,-0.20
2018-01-15T04:27:03.106Z,-0.30
2018-01-15T04:29:30.946Z,-0.30
2018-01-15T04:31:58.656Z,-0.30
2018-01-15T04:34:26.517Z,-0.30
2018-01-15T04:36:54.620Z,-0.30
2018-01-15T04:39:22.359Z,-0.10
2018-01-15T04:41:50.428Z,0.00
2018-01-15T04:44:18.197Z,0.10
2018-01-15T04:46:45.895Z,0.10
2018-01-15T04:49:13.765Z,0.00
2018-01-15T04:51:42.111Z,0.20
2018-01-15T04:54:09.969Z,0.20
2018-01-15T04:56:38.085Z,0.30
2018-01-15T04:59:05.864Z,0.20
2018-01-15T05:01:33.770Z,0.20
2018-01-15T05:04:02.233Z,0.20
2018-01-15T05:06:30.226Z,0.20
2018-01-15T05:08:58.120Z,0.20
2018-01-15T05:11:26.030Z,0.30
2018-01-15T05:13:53.890Z,0.40
2018-01-15T05:16:21.647Z,0.60
2018-01-15T05:18:50.131Z,0.70
2018-01-15T05:21:19.348Z,0.70
2018-01-15T05:23:47.302Z,0.80
2018-01-15T05:26:15.190Z,0.80
2018-01-15T05:28:43.144Z,0.90
2018-01-15T05:31:10.858Z,0.90
2018-01-15T05:33:38.689Z,0.80
2018-01-15T05:36:07.318Z,1.00
2018-01-15T05:38:36.012Z,1.00
2018-01-15T05:41:03.971Z,1.10
2018-01-15T05:43:31.641Z,1.00
2018-01-15T05:45:59.449Z,1.10
2018-01-15T05:48:27.113Z,1.00
2018-01-15T05:50:54.818Z,1.10
2018-01-15T05:53:23.632Z,1.20
2018-01-15T05:55:51.350Z,1.20
2018-01-15T05:58:19.777Z,1.20
2018-01-15T06:00:47.474Z,1.20
2018-01-15T06:03:15.138Z,1.30
2018-01-15T06:05:42.838Z,1.10
2018-01-15T06:08:10.514Z,1.30
2018-01-15T06:10:38.174Z,1.30
2018-01-15T06:13:05.869Z,1.30
2018-01-15T06:15:33.551Z,1.40
2018-01-15T06:18:02.018Z,1.20
2018-01-15T06:20:30.445Z,1.20
2018-01-15T06:22:58.146Z,1.20
2018-01-15T06:25:25.814Z,1.30
2018-01-15T06:27:54.294Z,1.30
2018-01-15T06:30:22.745Z,1.40
2018-01-15T06:32:50.454Z,1.40
2018-01-15T06:35:18.102Z,1.40
2018-01-15T06:37:46.575Z,1.60
2018-01-15T06:40:14.998Z,1.50
2018-01-15T06:42:42.699Z,1.50
2018-01-15T06:45:10.351Z,1.50
2018-01-15T06:47:38.046Z,1.60
2018-01-15T06:50:05.750Z,1.60
2018-01-15T06:52:33.448Z,1.50
2018-01-15T06:55:01.870Z,1.60
2018-01-15T06:57:29.795Z,1.60
2018-01-15T06:59:57.493Z,1.60
2018-01-15T07:02:25.200Z,1.60
2018-01-15T07:04:53.024Z,1.70
2018-01-15T07:07:20.992Z,1.60
2018-01-15T07:09:48.896Z,1.70
2018-01-15T07:12:17.483Z,1.50
2018-01-15T07:14:46.004Z,1.50
2018-01-15T07:17:13.739Z,1.50
2018-01-15T07:19:41.594Z,1.50
2018-01-15T07:22:09.258Z,1.60
2018-01-15T07:24:37.854Z,1.70
2018-01-15T07:27:06.979Z,1.70
2018-01-15T07:29:34.865Z,1.70
2018-01-15T07:32:03.583Z,1.70
2018-01-15T07:34:31.318Z,1.70
2018-01-15T07:36:59.155Z,1.70
2018-01-15T07:39:27.124Z,1.70
2018-01-15T07:41:55.075Z,1.70
2018-01-15T07:44:24.771Z,1.70
2018-01-15T07:46:52.438Z,1.70
2018-01-15T07:49:20.409Z,1.70
2018-01-15T07:51:48.085Z,1.70
2018-01-15T07:54:16.394Z,1.80
2018-01-15T07:56:45.466Z,1.80
2018-01-15T07:59:15.922Z,1.70
2018-01-15T08:01:43.663Z,1.70
2018-01-15T08:04:11.368Z,1.70
2018-01-15T08:06:39.034Z,1.70
2018-01-15T08:09:06.730Z,1.80
2018-01-15T08:11:34.396Z,1.90
2018-01-15T08:14:02.094Z,1.90
2018-01-15T08:16:29.755Z,2.00
2018-01-15T08:18:57.449Z,1.90
2018-01-15T08:21:25.109Z,1.90
2018-01-15T08:23:52.802Z,2.00
2018-01-15T08:26:21.273Z,2.10
2018-01-15T08:28:48.934Z,2.10
2018-01-15T08:31:17.398Z,2.00
2018-01-15T08:33:45.070Z,2.00
2018-01-15T08:36:13.562Z,2.00
2018-01-15T08:38:41.980Z,2.10
2018-01-15T08:41:09.694Z,2.10
2018-01-15T08:43:38.117Z,2.10
2018-01-15T08:46:05.818Z,2.10
2018-01-15T08:48:33.502Z,2.20
2018-01-15T08:51:01.978Z,2.20
2018-01-15T08:53:30.417Z,2.20
2018-01-15T08:55:58.118Z,2.20
2018-01-15T08:58:25.802Z,2.30
2018-01-15T09:00:53.504Z,2.40
2018-01-15T09:03:21.164Z,2.60
2018-01-15T09:05:48.866Z,2.60
2018-01-15T09:08:16.526Z,2.60
2018-01-15T09:10:44.230Z,2.60
2018-01-15T09:13:11.921Z,2.60
2018-01-15T09:15:40.387Z,2.70
2018-01-15T09:18:08.038Z,2.70
2018-01-15T09:20:35.705Z,2.70
2018-01-15T09:23:03.421Z,2.80
2018-01-15T09:25:31.074Z,2.80
2018-01-15T09:27:58.939Z,2.80
2018-01-15T09:30:26.598Z,2.70
2018-01-15T09:32:54.298Z,2.80
2018-01-15T09:35:21.962Z,2.80
2018-01-15T09:37:49.689Z,2.70
2018-01-15T09:40:17.346Z,2.80
2018-01-15T09:42:45.038Z,2.80
2018-01-15T09:45:12.704Z,2.80
2018-01-15T09:47:40.411Z,2.80
2018-01-15T09:50:08.067Z,2.90
2018-01-15T09:52:35.805Z,2.90
2018-01-15T09:55:04.239Z,2.80
2018-01-15T09:57:31.938Z,2.80
2018-01-15T10:00:00.363Z,2.90
2018-01-15T10:02:28.062Z,2.80
2018-01-15T10:04:55.718Z,2.90
2018-01-15T10:07:23.406Z,2.90
2018-01-15T10:09:51.062Z,2.80
2018-01-15T10:12:19.530Z,2.90
2018-01-15T10:14:47.951Z,2.90
2018-01-15T10:17:15.650Z,2.90
2018-01-15T10:19:43.301Z,2.90
2018-01-15T10:22:10.954Z,3.00
2018-01-15T10:24:38.662Z,2.90
2018-01-15T10:27:06.322Z,2.90
2018-01-15T10:29:34.027Z,3.00
2018-01-15T10:32:01.691Z,3.10
2018-01-15T10:34:29.383Z,3.10
2018-01-15T10:36:57.804Z,3.10
2018-01-15T10:39:25.507Z,3.10
2018-01-15T10:41:53.930Z,3.20
2018-01-15T10:44:21.627Z,3.20
2018-01-15T10:46:50.040Z,3.30
2018-01-15T10:49:18.498Z,3.30
2018-01-15T10:51:46.159Z,3.30
2018-01-15T10:54:14.755Z,3.30
2018-01-15T10:56:43.173Z,3.30
2018-01-15T10:59:10.874Z,3.30
2018-01-15T11:01:38.526Z,3.30
2018-01-15T11:04:06.238Z,3.30
2018-01-15T11:06:33.892Z,3.40
2018-01-15T11:09:01.591Z,3.40
2018-01-15T11:11:29.285Z,3.40
2018-01-15T11:13:57.745Z,3.40
2018-01-15T11:16:25.419Z,3.40
2018-01-15T11:18:53.883Z,3.50
2018-01-15T11:21:21.551Z,3.50
2018-01-15T11:23:50.026Z,3.40
2018-01-15T11:26:17.706Z,3.40
2018-01-15T11:28:46.132Z,3.40
2018-01-15T11:31:13.822Z,3.40
2018-01-15T11:33:41.681Z,3.40
2018-01-15T11:36:10.158Z,3.50
2018-01-15T11:38:37.943Z,3.50
2018-01-15T11:41:06.496Z,3.60
2018-01-15T11:43:34.154Z,3.60
2018-01-15T11:46:01.968Z,3.60
2018-01-15T11:48:29.638Z,3.60
2018-01-15T11:50:57.338Z,3.60
2018-01-15T11:53:25.160Z,3.50
2018-01-15T11:55:52.887Z,3.60
2018-01-15T11:58:21.512Z,3.60
2018-01-15T12:00:49.277Z,3.60
2018-01-15T12:03:16.991Z,3.50
2018-01-15T12:05:46.323Z,3.50
2018-01-15T12:08:14.161Z,3.50
2018-01-15T12:10:41.976Z,3.70
2018-01-15T12:13:09.802Z,3.70
2018-01-15T12:15:37.518Z,3.80
2018-01-15T12:18:05.322Z,3.70
2018-01-15T12:20:33.034Z,3.70
2018-01-15T12:23:00.686Z,3.80
2018-01-15T12:25:28.482Z,3.90
2018-01-15T12:27:56.150Z,4.00
2018-01-15T12:30:23.967Z,4.10
2018-01-15T12:32:51.712Z,4.00
2018-01-15T12:35:19.504Z,4.10
2018-01-15T12:37:47.227Z,4.20
2018-01-15T12:40:14.895Z,4.20
2018-01-15T12:42:42.714Z,4.20
2018-01-15T12:45:10.516Z,4.20
2018-01-15T12:47:38.261Z,4.30
2018-01-15T12:50:06.358Z,4.20
2018-01-15T12:52:34.078Z,4.10
2018-01-15T12:55:01.743Z,4.20
2018-01-15T12:57:30.086Z,4.20
2018-01-15T12:59:57.766Z,4.20
2018-01-15T13:02:25.576Z,4.10
2018-01-15T13:04:53.242Z,4.20
2018-01-15T13:07:32.936Z,4.20
2018-01-15T13:10:00.621Z,4.20
2018-01-15T13:12:33.608Z,4.20
2018-01-15T13:15:01.386Z,4.20
2018-01-15T13:17:29.139Z,4.30
2018-01-15T13:19:56.906Z,4.30
2018-01-15T13:22:24.787Z,4.30
2018-01-15T13:24:52.493Z,4.40
2018-01-15T13:27:20.347Z,4.40
2018-01-15T13:29:48.127Z,4.30
2018-01-15T13:32:15.813Z,4.40
2018-01-15T13:34:49.418Z,4.50
2018-01-15T13:37:17.216Z,4.50
2018-01-15T13:39:45.059Z,4.50
2018-01-15T13:42:12.751Z,4.50
2018-01-15T13:44:40.471Z,4.60
2018-01-15T13:47:08.379Z,4.60
2018-01-15T13:49:36.986Z,4.60
2018-01-15T13:52:04.740Z,4.70
2018-01-15T13:54:32.669Z,4.70
2018-01-15T13:57:00.352Z,4.60
2018-01-15T13:59:28.159Z,4.70
2018-01-15T14:01:55.970Z,4.80
2018-01-15T14:04:23.800Z,4.80
2018-01-15T14:06:51.651Z,4.70
2018-01-15T14:09:19.572Z,4.70
2018-01-15T14:11:47.389Z,4.70
2018-01-15T14:14:15.870Z,4.80
2018-01-15T14:16:43.522Z,4.80
2018-01-15T14:25:03.678Z,4.90
2018-01-15T14:33:13.269Z,4.90
2018-01-15T14:44:13.291Z,5.10
2018-01-15T14:49:32.394Z,5.10
2018-01-15T14:57:42.765Z,5.10
2018-01-15T15:00:10.511Z,5.10
2018-01-15T15:02:39.059Z,5.10
2018-01-15T15:05:06.739Z,5.10
2018-01-15T15:07:34.467Z,5.10
2018-01-15T15:10:02.170Z,5.10
2018-01-15T15:15:21.466Z,5.20
2018-01-15T15:18:00.027Z,5.20
2018-01-15T15:20:27.748Z,5.10
2018-01-15T15:22:55.397Z,5.10
2018-01-15T15:25:23.153Z,5.10
2018-01-15T15:27:51.566Z,5.10
2018-01-15T15:30:19.282Z,5.10
2018-01-15T15:32:47.710Z,5.10
2018-01-15T15:35:15.358Z,5.10
2018-01-15T15:37:43.059Z,5.00
2018-01-15T15:40:10.762Z,4.90
2018-01-15T15:42:38.439Z,5.00
2018-01-15T15:45:06.189Z,5.00
2018-01-15T15:47:33.846Z,5.00
2018-01-15T15:50:01.555Z,4.90
2018-01-15T15:52:29.208Z,5.00
2018-01-15T15:54:57.011Z,5.00
2018-01-15T15:57:24.662Z,4.80
2018-01-15T15:59:53.084Z,4.70
2018-01-15T16:02:20.801Z,4.70
2018-01-15T16:04:49.218Z,4.80
2018-01-15T16:07:16.933Z,4.80
2018-01-15T16:09:45.363Z,4.60
2018-01-15T16:12:13.066Z,4.60
2018-01-15T16:14:41.486Z,4.50
2018-01-15T16:17:09.186Z,4.50
2018-01-15T16:19:36.838Z,4.50
2018-01-15T16:22:16.382Z,4.40
2018-01-15T16:24:44.116Z,4.50
2018-01-15T16:27:11.838Z,4.40
2018-01-15T16:29:39.548Z,4.30
2018-01-15T16:32:07.206Z,4.40
2018-01-15T16:34:34.934Z,4.50
2018-01-15T16:37:02.623Z,4.40
2018-01-15T16:39:30.355Z,4.40
2018-01-15T16:41:58.022Z,4.20
2018-01-15T16:44:25.743Z,4.30
2018-01-15T16:46:54.184Z,4.30
2018-01-15T16:49:21.835Z,4.30
2018-01-15T16:51:49.542Z,4.20
2018-01-15T16:54:17.970Z,4.30
2018-01-15T16:56:45.692Z,4.30
2018-01-15T16:59:13.338Z,4.30
2018-01-15T17:01:41.768Z,4.30
2018-01-15T17:04:09.477Z,4.30
2018-01-15T17:06:37.890Z,4.20
2018-01-15T17:09:05.615Z,4.20
2018-01-15T17:11:34.030Z,4.30
2018-01-15T17:14:01.698Z,4.30
2018-01-15T17:16:29.403Z,4.30
2018-01-15T17:18:58.165Z,4.10
2018-01-15T17:21:25.878Z,4.10
2018-01-15T17:23:53.583Z,4.20
2018-01-15T17:26:21.294Z,4.30
2018-01-15T17:28:49.006Z,4.20
2018-01-15T17:31:16.723Z,4.20
2018-01-15T17:33:44.454Z,4.20
2018-01-15T17:36:13.312Z,4.40
2018-01-15T17:38:41.525Z,4.30
2018-01-15T17:41:09.228Z,4.30
2018-01-15T17:43:36.882Z,4.30
2018-01-15T17:46:04.751Z,4.30
2018-01-15T17:48:32.454Z,4.30
2018-01-15T17:51:01.150Z,4.20
2018-01-15T17:53:28.809Z,4.20
2018-01-15T17:55:56.528Z,4.30
2018-01-15T17:58:24.217Z,4.30
2018-01-15T18:00:52.694Z,4.30
2018-01-15T18:03:21.107Z,4.20
2018-01-15T18:05:48.834Z,4.20
2018-01-15T18:08:17.340Z,4.30
2018-01-15T18:10:44.995Z,4.30
2018-01-15T18:13:12.865Z,4.40
2018-01-15T18:15:40.525Z,4.30
2018-01-15T18:18:08.436Z,4.20
2018-01-15T18:20:36.212Z,4.20
2018-01-15T18:23:04.641Z,4.30
2018-01-15T18:25:32.350Z,4.30
2018-01-15T18:28:00.831Z,4.30
2018-01-15T18:30:29.350Z,4.30
2018-01-15T18:32:57.023Z,4.30
2018-01-15T18:35:24.751Z,4.20
2018-01-15T18:37:52.415Z,4.30
2018-01-15T18:40:20.126Z,4.30
2018-01-15T18:42:47.843Z,4.30
2018-01-15T18:45:15.578Z,4.40
2018-01-15T18:47:44.004Z,4.40
2018-01-15T18:50:11.686Z,4.40
2018-01-15T18:52:39.400Z,4.50
2018-01-15T18:55:07.114Z,4.50
2018-01-15T18:57:34.779Z,4.50
2018-01-15T19:00:03.344Z,4.70
2018-01-15T19:02:31.054Z,4.70
2018-01-15T19:04:58.772Z,4.60
2018-01-15T19:07:26.486Z,4.70
2018-01-15T19:09:54.161Z,4.80
2018-01-15T19:12:21.908Z,4.90
2018-01-15T19:14:49.567Z,4.90
2018-01-15T19:17:17.236Z,5.00
2018-01-15T19:19:45.026Z,5.10
2018-01-15T19:22:12.735Z,5.10
2018-01-15T19:24:40.439Z,5.20
2018-01-15T19:27:08.132Z,5.20
2018-01-15T19:29:36.862Z,5.30
2018-01-15T19:32:04.557Z,5.30
2018-01-15T19:34:35.947Z,5.30
2018-01-15T19:37:05.285Z,5.40
2018-01-15T19:39:32.972Z,5.30
2018-01-15T19:42:01.490Z,5.40
2018-01-15T19:44:34.658Z,5.40
2018-01-15T19:47:08.044Z,5.40
2018-01-15T19:49:42.265Z,5.40
2018-01-15T19:52:15.853Z,5.40
2018-01-15T19:57:53.744Z,5.40
2018-01-15T20:00:27.517Z,5.40
2018-01-15T20:03:01.161Z,5.40
2018-01-15T20:05:34.974Z,5.40
2018-01-15T20:08:09.633Z,5.30
2018-01-15T20:13:44.239Z,5.30
2018-01-15T20:16:12.687Z,5.30
2018-01-15T20:18:40.394Z,5.30
2018-01-15T20:21:08.067Z,5.30
2018-01-15T20:23:35.774Z,5.20
2018-01-15T20:26:03.494Z,5.30
2018-01-15T20:28:31.198Z,5.20
2018-01-15T20:30:59.822Z,5.30
2018-01-15T20:33:27.503Z,5.20
2018-01-15T20:35:56.049Z,5.20
2018-01-15T20:38:23.831Z,5.20
2018-01-15T20:40:51.542Z,5.20
2018-01-15T20:43:19.962Z,5.20
2018-01-15T20:45:47.691Z,5.20
2018-01-15T20:48:16.102Z,5.20
2018-01-15T20:50:44.016Z,5.20
2018-01-15T20:53:11.802Z,5.20
2018-01-15T20:55:39.489Z,5.20
2018-01-15T20:58:07.254Z,5.30
2018-01-15T21:00:41.724Z,5.30
2018-01-15T21:03:10.211Z,5.30
2018-01-15T21:05:38.690Z,5.30
2018-01-15T21:08:07.121Z,5.30
2018-01-15T21:10:34.953Z,5.30
2018-01-15T21:13:03.596Z,5.30
2018-01-15T21:15:31.319Z,5.20
2018-01-15T21:17:59.282Z,5.30
2018-01-15T21:20:26.982Z,5.30
2018-01-15T21:22:54.747Z,5.40
2018-01-15T21:25:22.533Z,5.40
2018-01-15T21:27:50.248Z,5.40
2018-01-15T21:30:17.944Z,5.30
2018-01-15T21:32:46.427Z,5.30
2018-01-15T21:35:14.415Z,5.30
2018-01-15T21:37:42.673Z,5.40
2018-01-15T21:40:10.331Z,5.40
2018-01-15T21:42:38.069Z,5.50
2018-01-15T21:45:05.727Z,5.40
2018-01-15T21:47:33.434Z,5.40
2018-01-15T21:50:01.121Z,5.40
2018-01-15T21:52:28.906Z,5.50
2018-01-15T21:54:56.567Z,5.50
2018-01-15T21:57:24.303Z,5.50
2018-01-15T21:59:51.963Z,5.60
2018-01-15T22:02:19.699Z,5.50
2018-01-15T22:04:47.360Z,5.60
2018-01-15T22:07:15.067Z,5.60
2018-01-15T22:09:42.808Z,5.60
2018-01-15T22:12:10.511Z,5.70
2018-01-15T22:14:38.485Z,5.70
2018-01-15T22:17:06.163Z,5.70
2018-01-15T22:19:33.889Z,5.70
2018-01-15T22:22:02.478Z,5.70
2018-01-15T22:24:30.285Z,5.70
2018-01-15T22:26:58.094Z,5.80
2018-01-15T22:29:26.594Z,5.70
2018-01-15T22:31:54.436Z,5.70
2018-01-15T22:34:22.907Z,5.80
2018-01-15T22:36:51.487Z,5.90
2018-01-15T22:39:19.928Z,5.90
2018-01-15T22:41:47.821Z,5.90
2018-01-15T22:44:15.478Z,5.90
2018-01-15T22:46:43.207Z,5.90
2018-01-15T22:49:10.979Z,6.00
2018-01-15T22:51:39.106Z,5.90
2018-01-15T22:54:06.831Z,6.00
2018-01-15T22:56:34.607Z,5.90
2018-01-15T22:59:03.087Z,6.00
2018-01-15T23:01:30.832Z,5.90
2018-01-15T23:03:58.560Z,5.90
2018-01-15T23:06:26.225Z,6.00
2018-01-15T23:08:53.962Z,6.00
2018-01-15T23:11:21.619Z,6.00
2018-01-15T23:13:49.335Z,6.00
2018-01-15T23:16:17.781Z,6.00
2018-01-15T23:18:45.638Z,6.00
2018-01-15T23:21:13.343Z,6.10
2018-01-15T23:23:41.858Z,6.10
2018-01-15T23:26:09.551Z,6.10
2018-01-15T23:28:37.285Z,6.10
2018-01-15T23:31:05.007Z,6.10
2018-01-15T23:33:33.430Z,6.10
2018-01-15T23:36:01.134Z,6.10
2018-01-15T23:38:28.805Z,6.10
2018-01-15T23:40:57.246Z,6.10
2018-01-15T23:43:24.998Z,6.10
2018-01-15T23:45:52.659Z,6.10
2018-01-15T23:48:20.374Z,6.20
2018-01-15T23:50:49.461Z,6.20
2018-01-15T23:53:18.142Z,6.30
2018-01-15T23:55:45.867Z,6.20
2018-01-15T23:58:13.599Z,6.30
